createdAt,value
2023-03-13T00:36:39.060Z,20.98
2023-03-13T00:39:09.773Z,22.31
2023-03-13T00:41:40.833Z,22.91
2023-03-13T00:44:11.425Z,22.52
2023-03-13T00:46:42.605Z,23.67
2023-03-13T00:49:13.017Z,23.99
2023-03-13T00:51:43.421Z,23.87
2023-03-13T00:54:13.785Z,23.09
2023-03-13T00:56:44.257Z,23.81
2023-03-13T00:59:15.843Z,24.96
2023-03-13T01:01:46.223Z,23.66
2023-03-13T01:04:17.466Z,24.20
2023-03-13T01:06:47.751Z,25.38
2023-03-13T01:09:19.397Z,23.58
2023-03-13T01:11:49.877Z,23.09
2023-03-13T01:14:22.290Z,23.41
2023-03-13T01:16:52.811Z,22.50
2023-03-13T01:19:23.292Z,22.76
2023-03-13T01:21:53.850Z,23.85
2023-03-13T01:24:26.163Z,23.28
2023-03-13T01:26:57.112Z,24.20
2023-03-13T01:29:27.370Z,24.03
2023-03-13T01:31:57.721Z,22.80
2023-03-13T01:34:28.255Z,22.67
2023-03-13T01:36:58.694Z,22.64
2023-03-13T01:39:30.029Z,23.13
2023-03-13T01:42:00.877Z,22.74
2023-03-13T01:44:32.394Z,22.85
2023-03-13T01:47:02.888Z,21.62
2023-03-13T01:49:55.970Z,22.67
2023-03-13T01:52:43.512Z,23.17
2023-03-13T01:55:28.513Z,22.41
2023-03-13T01:57:59.445Z,21.09
2023-03-13T02:00:36.200Z,21.35
2023-03-13T02:03:12.976Z,21.43
2023-03-13T02:05:45.020Z,20.15
2023-03-13T02:08:41.697Z,19.76
2023-03-13T02:11:34.061Z,19.63
2023-03-13T02:14:06.652Z,19.42
2023-03-13T02:16:38.438Z,19.20
2023-03-13T02:19:34.693Z,20.23
2023-03-13T02:22:18.679Z,19.55
2023-03-13T02:24:52.117Z,21.31
2023-03-13T02:27:22.796Z,21.34
2023-03-13T02:29:54.965Z,20.97
2023-03-13T02:32:27.537Z,20.55
2023-03-13T02:35:03.691Z,18.77
2023-03-13T02:37:35.817Z,18.88
2023-03-13T02:40:15.980Z,19.67
2023-03-13T02:42:48.047Z,20.43
2023-03-13T02:45:20.474Z,18.88
2023-03-13T02:47:50.968Z,19.11
2023-03-13T02:50:22.815Z,20.12
2023-03-13T02:53:05.743Z,19.15
2023-03-13T02:55:42.736Z,20.84
2023-03-13T02:58:14.711Z,20.68
2023-03-13T03:00:45.165Z,21.12
2023-03-13T03:03:15.851Z,20.12
2023-03-13T03:05:46.189Z,21.60
2023-03-13T03:08:16.747Z,21.38
2023-03-13T03:10:46.994Z,20.82
2023-03-13T03:13:17.762Z,20.93
2023-03-13T03:15:48.906Z,20.23
2023-03-13T03:18:19.723Z,21.08
2023-03-13T03:20:50.117Z,20.53
2023-03-13T03:23:21.320Z,20.82
2023-03-13T03:25:51.723Z,21.11
2023-03-13T03:28:22.115Z,20.58
2023-03-13T03:30:54.822Z,20.60
2023-03-13T03:33:26.496Z,20.95
2023-03-13T03:36:03.364Z,20.22
2023-03-13T03:38:34.520Z,20.57
2023-03-13T03:41:05.744Z,20.62
2023-03-13T03:43:37.149Z,19.75
2023-03-13T03:46:10.246Z,20.52
2023-03-13T03:48:41.591Z,19.83
2023-03-13T03:51:15.076Z,20.43
2023-03-13T03:53:47.819Z,19.41
2023-03-13T03:56:19.097Z,19.89
2023-03-13T03:58:55.304Z,20.95
2023-03-13T04:01:46.736Z,20.55
2023-03-13T04:04:21.809Z,20.57
2023-03-13T04:06:56.848Z,20.13
2023-03-13T04:09:30.958Z,20.09
2023-03-13T04:12:04.394Z,19.86
2023-03-13T04:14:39.090Z,18.64
2023-03-13T04:17:12.838Z,17.79
2023-03-13T04:19:45.664Z,18.57
2023-03-13T04:22:16.922Z,18.56
2023-03-13T04:24:55.535Z,19.14
2023-03-13T04:27:26.865Z,18.77
2023-03-13T04:29:57.402Z,19.57
2023-03-13T04:32:45.297Z,19.75
2023-03-13T04:35:44.786Z,19.34
2023-03-13T04:38:35.408Z,19.03
2023-03-13T04:41:25.830Z,19.47
2023-03-13T04:44:18.893Z,20.51
2023-03-13T04:47:00.523Z,21.93
2023-03-13T04:50:00.716Z,22.79
2023-03-13T04:52:44.782Z,23.30
2023-03-13T04:55:33.223Z,24.15
2023-03-13T04:58:32.267Z,23.80
2023-03-13T05:01:23.057Z,24.70
2023-03-13T05:04:14.171Z,25.28
2023-03-13T05:07:01.510Z,24.21
2023-03-13T05:09:45.254Z,24.93
2023-03-13T05:12:45.429Z,25.74
2023-03-13T05:15:29.058Z,25.16
2023-03-13T05:18:18.163Z,26.68
2023-03-13T05:20:57.384Z,27.12
2023-03-13T05:23:53.723Z,25.57
2023-03-13T05:26:34.685Z,26.09
2023-03-13T05:29:16.402Z,26.30
2023-03-13T05:32:04.920Z,25.56
2023-03-13T05:34:54.289Z,26.16
2023-03-13T05:37:42.054Z,25.20
2023-03-13T05:40:36.053Z,26.41
2023-03-13T05:43:17.886Z,26.04
2023-03-13T05:46:08.740Z,26.27
2023-03-13T05:48:51.406Z,25.77
2023-03-13T05:51:51.548Z,26.51
2023-03-13T05:54:51.223Z,26.37
2023-03-13T05:57:25.040Z,27.80
2023-03-13T06:00:06.140Z,27.25
2023-03-13T06:02:55.331Z,28.17
2023-03-13T06:05:33.387Z,28.77
2023-03-13T06:08:06.650Z,28.63
2023-03-13T06:10:38.983Z,27.43
2023-03-13T06:13:19.476Z,27.96
2023-03-13T06:15:59.850Z,26.57
2023-03-13T06:18:46.606Z,27.04
2023-03-13T06:21:18.483Z,26.77
2023-03-13T06:23:49.027Z,26.86
2023-03-13T06:26:19.239Z,25.99
2023-03-13T06:28:50.774Z,25.47
2023-03-13T06:31:22.020Z,25.19
2023-03-13T06:33:56.159Z,26.45
2023-03-13T06:36:27.233Z,24.77
2023-03-13T06:38:57.616Z,24.93
2023-03-13T06:41:29.336Z,25.38
2023-03-13T06:43:59.853Z,25.01
2023-03-13T06:46:30.289Z,25.28
2023-03-13T06:49:02.284Z,25.51
2023-03-13T06:51:32.873Z,25.66
2023-03-13T06:54:05.508Z,25.03
2023-03-13T06:56:36.014Z,23.76
2023-03-13T06:59:06.584Z,23.50
2023-03-13T07:01:36.845Z,24.86
2023-03-13T07:04:07.904Z,25.14
2023-03-13T07:06:38.194Z,24.71
2023-03-13T07:09:08.594Z,24.25
2023-03-13T07:11:38.904Z,25.15
2023-03-13T07:14:17.049Z,24.67
2023-03-13T07:16:48.475Z,23.71
2023-03-13T07:19:19.214Z,23.85
2023-03-13T07:21:51.160Z,24.55
2023-03-13T07:24:22.695Z,23.92
2023-03-13T07:27:04.894Z,24.13
2023-03-13T07:29:37.624Z,23.57
2023-03-13T07:32:08.708Z,23.00
2023-03-13T07:34:39.161Z,23.47
2023-03-13T07:37:09.997Z,23.77
2023-03-13T07:39:40.505Z,24.00
2023-03-13T07:42:13.890Z,23.65
2023-03-13T07:44:44.971Z,23.47
2023-03-13T07:47:15.307Z,22.99
2023-03-13T07:49:47.955Z,22.18
2023-03-13T07:52:19.549Z,22.62
2023-03-13T07:54:50.120Z,21.90
2023-03-13T07:57:20.769Z,22.19
2023-03-13T07:59:50.989Z,22.73
2023-03-13T08:02:21.560Z,22.55
2023-03-13T08:04:56.049Z,21.94
2023-03-13T08:07:27.861Z,22.08
2023-03-13T08:09:58.263Z,22.17
2023-03-13T08:12:28.996Z,21.54
2023-03-13T08:14:59.484Z,22.29
2023-03-13T08:17:32.372Z,21.04
2023-03-13T08:20:02.714Z,21.78
2023-03-13T08:22:33.967Z,21.33
2023-03-13T08:25:04.157Z,21.89
2023-03-13T08:27:34.372Z,21.90
2023-03-13T08:30:04.723Z,21.86
2023-03-13T08:32:36.941Z,21.47
2023-03-13T08:35:08.399Z,21.86
2023-03-13T08:37:38.803Z,21.99
2023-03-13T08:40:12.841Z,21.51
2023-03-13T08:42:43.151Z,21.95
2023-03-13T08:45:13.645Z,21.81
2023-03-13T08:47:43.887Z,21.42
2023-03-13T08:50:14.579Z,22.20
2023-03-13T08:52:47.215Z,21.62
2023-03-13T08:55:17.564Z,21.78
2023-03-13T08:57:47.953Z,22.06
2023-03-13T09:00:20.931Z,22.00
2023-03-13T09:02:52.088Z,22.04
2023-03-13T09:05:22.270Z,22.11
2023-03-13T09:07:52.634Z,22.54
2023-03-13T09:10:23.095Z,22.20
2023-03-13T09:12:53.979Z,22.28
2023-03-13T09:15:24.322Z,22.52
2023-03-13T09:17:55.032Z,22.45
2023-03-13T09:20:25.600Z,22.13
2023-03-13T09:22:55.970Z,22.39
2023-03-13T09:25:26.487Z,22.53
2023-03-13T09:27:57.025Z,22.34
2023-03-13T09:30:27.884Z,22.58
2023-03-13T09:32:58.140Z,22.72
2023-03-13T09:35:29.153Z,22.22
2023-03-13T09:37:59.683Z,22.26
2023-03-13T09:40:31.272Z,21.88
2023-03-13T09:43:02.954Z,22.95
2023-03-13T09:45:42.522Z,22.72
2023-03-13T09:48:45.058Z,22.76
2023-03-13T09:51:27.035Z,22.50
2023-03-13T09:54:24.481Z,22.78
2023-03-13T09:57:17.195Z,22.97
2023-03-13T10:00:23.443Z,23.20
2023-03-13T10:03:07.664Z,23.17
2023-03-13T10:05:39.797Z,23.01
2023-03-13T10:08:14.897Z,22.80
2023-03-13T10:11:20.153Z,23.18
2023-03-13T10:13:54.067Z,23.15
2023-03-13T10:16:33.333Z,23.10
2023-03-13T10:19:18.298Z,23.41
2023-03-13T10:21:54.164Z,23.20
2023-03-13T10:25:19.769Z,23.21
2023-03-13T10:27:55.240Z,23.61
2023-03-13T10:30:37.154Z,23.28
2023-03-13T10:33:10.247Z,23.44
2023-03-13T10:35:45.233Z,23.09
2023-03-13T10:38:25.572Z,23.50
2023-03-13T10:41:09.560Z,23.36
2023-03-13T10:43:54.108Z,23.57
2023-03-13T10:46:38.167Z,23.52
2023-03-13T10:49:25.974Z,23.64
2023-03-13T10:52:05.403Z,24.02
2023-03-13T10:54:38.932Z,23.66
2023-03-13T10:57:21.526Z,23.57
2023-03-13T10:59:53.993Z,23.78
2023-03-13T11:02:26.152Z,24.14
2023-03-13T11:04:57.207Z,23.73
2023-03-13T11:07:37.701Z,23.93
2023-03-13T11:10:20.196Z,24.21
2023-03-13T11:12:55.704Z,24.18
2023-03-13T11:15:53.511Z,23.78
2023-03-13T11:18:39.893Z,24.18
2023-03-13T11:21:26.248Z,24.35
2023-03-13T11:24:08.986Z,24.06
2023-03-13T11:26:55.090Z,23.92
2023-03-13T11:29:50.514Z,24.49
2023-03-13T11:32:28.659Z,24.63
2023-03-13T11:35:06.841Z,24.04
2023-03-13T11:37:41.965Z,23.98
2023-03-13T11:40:29.436Z,24.56
2023-03-13T11:43:14.245Z,24.35
2023-03-13T11:45:58.686Z,24.17
2023-03-13T11:48:56.881Z,24.37
2023-03-13T11:51:39.276Z,24.49
2023-03-13T11:54:28.263Z,24.19
2023-03-13T11:57:08.783Z,24.97
2023-03-13T12:00:02.387Z,24.44
2023-03-13T12:03:16.012Z,24.82
2023-03-13T12:06:15.868Z,24.92
2023-03-13T12:08:54.578Z,25.14
2023-03-13T12:11:30.795Z,24.95
2023-03-13T12:14:05.887Z,24.39
2023-03-13T12:16:45.004Z,24.25
2023-03-13T12:19:22.471Z,25.31
2023-03-13T12:21:59.251Z,25.00
2023-03-13T12:24:40.435Z,24.58
2023-03-13T12:27:23.406Z,24.83
2023-03-13T12:30:17.430Z,25.14
2023-03-13T12:33:05.642Z,24.66
2023-03-13T12:35:39.363Z,25.23
2023-03-13T12:38:27.507Z,25.02
2023-03-13T12:41:07.139Z,25.07
2023-03-13T12:43:41.464Z,24.93
2023-03-13T12:46:28.344Z,25.57
2023-03-13T12:49:39.684Z,25.63
2023-03-13T12:52:51.466Z,24.95
2023-03-13T12:55:33.990Z,25.61
2023-03-13T12:58:16.457Z,25.07
2023-03-13T13:00:50.020Z,25.54
2023-03-13T13:03:35.035Z,25.38
2023-03-13T13:06:10.087Z,25.28
2023-03-13T13:09:04.484Z,25.14
2023-03-13T13:11:40.818Z,25.49
2023-03-13T13:14:21.219Z,24.93
2023-03-13T13:17:18.013Z,25.57
2023-03-13T13:19:49.893Z,25.30
2023-03-13T13:22:39.126Z,25.69
2023-03-13T13:25:13.217Z,25.32
2023-03-13T13:27:45.799Z,25.39
2023-03-13T13:30:21.951Z,25.75
2023-03-13T13:32:59.150Z,25.86
2023-03-13T13:35:37.610Z,25.51
2023-03-13T13:38:20.276Z,25.63
2023-03-13T13:41:11.872Z,25.40
2023-03-13T13:43:48.529Z,26.21
2023-03-13T13:46:30.585Z,26.21
2023-03-13T13:49:15.777Z,26.07
2023-03-13T13:52:05.811Z,25.37
2023-03-13T13:54:46.996Z,26.12
2023-03-13T13:57:21.974Z,26.18
2023-03-13T13:59:59.148Z,26.23
2023-03-13T14:02:38.736Z,25.29
2023-03-13T14:05:17.774Z,25.46
2023-03-13T14:08:18.057Z,25.95
2023-03-13T14:11:17.799Z,26.06
2023-03-13T14:14:07.835Z,25.75
2023-03-13T14:16:40.133Z,26.05
2023-03-13T14:19:37.517Z,25.39
2023-03-13T14:22:13.361Z,26.33
2023-03-13T14:24:43.632Z,26.06
2023-03-13T14:27:23.141Z,25.76
2023-03-13T14:30:07.422Z,25.67
2023-03-13T14:32:39.183Z,26.00
2023-03-13T14:35:11.749Z,25.43
2023-03-13T14:37:50.298Z,26.50
2023-03-13T14:40:27.651Z,26.39
2023-03-13T14:43:01.088Z,25.85
2023-03-13T14:45:40.578Z,26.05
2023-03-13T14:48:34.731Z,26.73
2023-03-13T14:51:15.587Z,25.57
2023-03-13T14:54:01.842Z,25.66
2023-03-13T14:56:37.780Z,25.75
2023-03-13T14:59:31.036Z,27.08
2023-03-13T15:02:25.794Z,25.68
2023-03-13T15:05:13.984Z,26.38
2023-03-13T15:07:56.420Z,26.01
2023-03-13T15:10:42.216Z,26.81
2023-03-13T15:13:38.704Z,25.99
2023-03-13T15:16:24.614Z,26.72
2023-03-13T15:18:56.301Z,26.56
2023-03-13T15:21:33.035Z,26.83
2023-03-13T15:24:14.141Z,26.46
2023-03-13T15:26:44.974Z,25.99
2023-03-13T15:29:17.148Z,26.78
2023-03-13T15:31:47.760Z,25.98
2023-03-13T15:34:18.683Z,26.21
2023-03-13T15:36:49.026Z,26.49
2023-03-13T15:39:24.686Z,26.96
2023-03-13T15:41:55.622Z,26.86
2023-03-13T15:44:25.839Z,25.53
2023-03-13T15:46:56.306Z,25.83
2023-03-13T15:49:26.710Z,26.44
2023-03-13T15:51:57.915Z,26.55
2023-03-13T15:54:28.592Z,26.67
2023-03-13T15:56:59.276Z,25.95
2023-03-13T15:59:29.854Z,27.10
2023-03-13T16:02:00.293Z,26.46
2023-03-13T16:04:30.634Z,26.62
2023-03-13T16:07:01.161Z,26.13
2023-03-13T16:09:32.259Z,26.76
2023-03-13T16:12:02.769Z,25.95
2023-03-13T16:14:33.032Z,26.53
2023-03-13T16:17:04.759Z,26.62
2023-03-13T16:19:35.084Z,26.85
2023-03-13T16:22:06.306Z,26.55
2023-03-13T16:24:36.996Z,27.20
2023-03-13T16:27:19.002Z,26.22
2023-03-13T16:29:50.385Z,26.10
2023-03-13T16:32:25.779Z,26.27
2023-03-13T16:34:56.378Z,26.14
2023-03-13T16:37:27.224Z,26.43
2023-03-13T16:39:58.359Z,27.08
2023-03-13T16:42:29.260Z,27.09
2023-03-13T16:44:59.519Z,27.12
2023-03-13T16:47:33.255Z,26.60
2023-03-13T16:50:06.174Z,26.95
2023-03-13T16:52:36.503Z,27.18
2023-03-13T16:55:07.994Z,27.33
2023-03-13T16:57:39.150Z,26.25
2023-03-13T17:00:22.917Z,26.99
2023-03-13T17:02:53.654Z,27.11
2023-03-13T17:05:23.971Z,26.58
2023-03-13T17:07:54.677Z,26.14
2023-03-13T17:10:33.552Z,26.89
2023-03-13T17:13:04.287Z,26.48
2023-03-13T17:15:34.917Z,26.64
2023-03-13T17:18:05.311Z,26.25
2023-03-13T17:20:36.310Z,27.17
2023-03-13T17:23:06.664Z,26.32
2023-03-13T17:25:37.229Z,26.61
2023-03-13T17:28:07.609Z,26.69
2023-03-13T17:30:38.162Z,27.12
2023-03-13T17:33:08.608Z,26.46
2023-03-13T17:35:39.364Z,26.99
2023-03-13T17:38:11.057Z,27.38
2023-03-13T17:40:43.106Z,26.96
2023-03-13T17:43:14.387Z,26.97
2023-03-13T17:45:44.834Z,26.92
2023-03-13T17:48:15.808Z,27.19
2023-03-13T17:50:46.042Z,27.34
2023-03-13T17:53:16.536Z,26.43
2023-03-13T17:55:47.844Z,25.60
2023-03-13T17:58:18.241Z,27.20
2023-03-13T18:00:49.120Z,26.04
2023-03-13T18:03:20.239Z,26.04
2023-03-13T18:05:50.664Z,27.27
2023-03-13T18:08:22.177Z,26.47
2023-03-13T18:10:52.557Z,26.50
2023-03-13T18:13:23.331Z,27.06
2023-03-13T18:15:53.721Z,26.29
2023-03-13T18:18:24.391Z,26.87
2023-03-13T18:20:56.139Z,26.99
2023-03-13T18:23:26.698Z,26.51
2023-03-13T18:25:59.328Z,26.79
2023-03-13T18:28:29.592Z,26.04
2023-03-13T18:30:59.935Z,26.62
2023-03-13T18:33:30.445Z,25.84
2023-03-13T18:36:00.825Z,26.74
2023-03-13T18:38:31.188Z,26.08
2023-03-13T18:41:01.547Z,25.80
2023-03-13T18:43:32.147Z,25.87
2023-03-13T18:46:02.789Z,26.27
2023-03-13T18:48:33.128Z,26.48
2023-03-13T18:51:05.562Z,26.72
2023-03-13T18:53:35.988Z,25.78
2023-03-13T18:56:15.990Z,25.74
2023-03-13T18:58:49.749Z,26.48
2023-03-13T19:01:24.978Z,26.76
2023-03-13T19:03:55.940Z,25.66
2023-03-13T19:06:28.047Z,26.10
2023-03-13T19:09:01.571Z,26.40
2023-03-13T19:11:35.104Z,26.55
2023-03-13T19:14:06.959Z,26.66
2023-03-13T19:16:50.330Z,25.81
2023-03-13T19:19:23.198Z,25.65
2023-03-13T19:21:58.218Z,26.90
2023-03-13T19:24:30.234Z,25.77
2023-03-13T19:27:02.211Z,25.73
2023-03-13T19:29:35.356Z,26.93
2023-03-13T19:32:08.752Z,26.25
2023-03-13T19:34:39.142Z,25.71
2023-03-13T19:37:18.138Z,25.93
2023-03-13T19:39:48.619Z,25.88
2023-03-13T19:42:19.210Z,26.24
2023-03-13T19:44:49.559Z,26.95
2023-03-13T19:47:20.365Z,27.06
2023-03-13T19:49:52.688Z,25.82
2023-03-13T19:52:23.646Z,25.70
2023-03-13T19:54:55.964Z,25.78
2023-03-13T19:57:26.272Z,25.49
2023-03-13T19:59:56.712Z,25.45
2023-03-13T20:02:27.903Z,25.19
2023-03-13T20:04:58.303Z,25.79
2023-03-13T20:07:28.657Z,26.63
2023-03-13T20:09:59.035Z,25.40
2023-03-13T20:12:29.621Z,25.52
2023-03-13T20:15:00.010Z,26.08
2023-03-13T20:17:30.416Z,26.39
2023-03-13T20:20:00.682Z,26.35
2023-03-13T20:22:31.026Z,25.12
2023-03-13T20:25:01.991Z,25.21
2023-03-13T20:27:32.329Z,26.74
2023-03-13T20:30:03.359Z,25.28
2023-03-13T20:32:33.835Z,25.39
2023-03-13T20:35:04.302Z,25.20
2023-03-13T20:37:34.660Z,26.30
2023-03-13T20:40:06.382Z,26.05
2023-03-13T20:42:36.832Z,25.09
2023-03-13T20:45:10.878Z,25.95
2023-03-13T20:47:41.210Z,24.95
2023-03-13T20:50:12.370Z,25.05
2023-03-13T20:52:42.689Z,25.52
2023-03-13T20:55:13.204Z,25.18
2023-03-13T20:57:43.641Z,25.93
2023-03-13T21:00:14.860Z,25.40
2023-03-13T21:02:45.218Z,26.18
2023-03-13T21:05:15.803Z,26.41
2023-03-13T21:07:46.430Z,25.46
2023-03-13T21:10:19.603Z,25.38
2023-03-13T21:12:50.572Z,25.85
2023-03-13T21:15:21.119Z,26.31
2023-03-13T21:17:52.510Z,25.26
2023-03-13T21:20:22.915Z,25.95
2023-03-13T21:22:53.453Z,25.57
2023-03-13T21:25:23.995Z,24.35
2023-03-13T21:27:54.394Z,25.98
2023-03-13T21:30:24.978Z,26.06
2023-03-13T21:32:55.964Z,25.62
2023-03-13T21:35:26.635Z,25.03
2023-03-13T21:37:57.020Z,24.97
2023-03-13T21:40:27.604Z,25.07
2023-03-13T21:42:58.544Z,25.30
2023-03-13T21:45:28.948Z,25.30
2023-03-13T21:48:00.260Z,25.64
2023-03-13T21:50:30.750Z,25.04
2023-03-13T21:53:01.817Z,24.57
2023-03-13T21:55:33.239Z,25.09
2023-03-13T21:58:03.893Z,25.07
2023-03-13T22:00:34.307Z,25.04
2023-03-13T22:03:05.164Z,25.02
2023-03-13T22:05:35.777Z,25.17
2023-03-13T22:08:06.549Z,24.85
2023-03-13T22:10:37.259Z,24.48
2023-03-13T22:13:10.418Z,24.78
2023-03-13T22:15:41.044Z,24.49
2023-03-13T22:18:12.147Z,23.69
2023-03-13T22:20:42.506Z,24.63
2023-03-13T22:23:14.221Z,24.58
2023-03-13T22:25:47.348Z,24.67
2023-03-13T22:28:17.802Z,24.82
2023-03-13T22:30:48.245Z,24.80
2023-03-13T22:33:19.249Z,24.99
2023-03-13T22:35:56.440Z,24.17
2023-03-13T22:38:27.039Z,24.21
2023-03-13T22:41:03.119Z,24.82
2023-03-13T22:43:33.958Z,23.92
2023-03-13T22:46:06.099Z,24.17
2023-03-13T22:48:37.778Z,24.69
2023-03-13T22:51:08.964Z,24.03
2023-03-13T22:53:41.178Z,24.42
2023-03-13T22:56:13.609Z,24.41
2023-03-13T22:58:44.870Z,24.67
2023-03-13T23:01:20.595Z,23.23
2023-03-13T23:03:51.809Z,24.83
2023-03-13T23:06:25.368Z,24.06
2023-03-13T23:08:56.590Z,23.64
2023-03-13T23:11:27.013Z,24.38
2023-03-13T23:13:57.426Z,24.63
2023-03-13T23:16:28.122Z,25.30
2023-03-13T23:18:58.526Z,25.69
2023-03-13T23:21:28.897Z,26.41
2023-03-13T23:23:59.473Z,25.80
2023-03-13T23:26:29.862Z,25.79
2023-03-13T23:29:00.422Z,25.65
2023-03-13T23:31:30.791Z,26.03
2023-03-13T23:34:01.020Z,26.79
2023-03-13T23:36:31.797Z,25.93
2023-03-13T23:39:04.332Z,26.16
2023-03-13T23:41:35.005Z,25.36
2023-03-13T23:44:05.455Z,25.57
2023-03-13T23:46:36.549Z,25.96
2023-03-13T23:49:06.807Z,27.33
2023-03-13T23:51:37.399Z,26.88
2023-03-13T23:54:07.904Z,26.56
2023-03-13T23:56:38.497Z,26.57
2023-03-13T23:59:08.759Z,27.85
